createdAt,value
2022-12-17T00:00:21.955Z,80.00
2022-12-17T00:04:05.840Z,80.10
2022-12-17T00:07:48.559Z,80.50
2022-12-17T00:11:29.738Z,80.20
2022-12-17T00:15:11.582Z,80.10
2022-12-17T00:18:54.031Z,80.10
2022-12-17T00:22:37.736Z,80.10
2022-12-17T00:26:18.837Z,80.10
2022-12-17T00:30:00.829Z,80.00
2022-12-17T00:33:43.559Z,80.00
2022-12-17T00:37:26.582Z,79.80
2022-12-17T00:41:11.584Z,79.80
2022-12-17T00:44:53.685Z,79.70
2022-12-17T00:48:37.765Z,79.80
2022-12-17T00:52:20.622Z,79.80
2022-12-17T00:56:03.103Z,79.60
2022-12-17T00:59:44.633Z,79.70
2022-12-17T01:03:28.622Z,80.10
2022-12-17T01:07:11.896Z,79.60
2022-12-17T01:10:54.767Z,79.60
2022-12-17T01:14:39.621Z,80.30
2022-12-17T01:18:23.978Z,81.00
2022-12-17T01:22:05.850Z,81.20
2022-12-17T01:25:46.825Z,81.20
2022-12-17T01:29:28.918Z,81.20
2022-12-17T01:33:12.653Z,81.20
2022-12-17T01:36:54.212Z,81.20
2022-12-17T01:40:36.668Z,81.10
2022-12-17T01:44:17.465Z,81.20
2022-12-17T01:48:04.905Z,80.90
2022-12-17T01:51:49.667Z,80.60
2022-12-17T01:55:31.706Z,80.80
2022-12-17T01:59:14.698Z,80.70
2022-12-17T02:02:56.815Z,80.40
2022-12-17T02:06:44.663Z,80.60
2022-12-17T02:10:41.835Z,80.60
2022-12-17T02:14:35.416Z,80.70
2022-12-17T02:18:20.690Z,80.70
2022-12-17T02:22:09.701Z,80.90
2022-12-17T02:26:06.703Z,80.70
2022-12-17T02:29:55.702Z,80.90
2022-12-17T02:33:38.552Z,80.70
2022-12-17T02:37:35.688Z,80.50
2022-12-17T02:41:14.430Z,80.60
2022-12-17T02:44:59.726Z,80.50
2022-12-17T02:48:45.863Z,80.20
2022-12-17T02:52:35.149Z,79.80
2022-12-17T02:56:17.746Z,79.30
2022-12-17T03:00:00.435Z,79.40
2022-12-17T03:03:48.694Z,79.60
2022-12-17T03:07:37.814Z,79.80
2022-12-17T03:11:19.780Z,80.10
2022-12-17T03:15:02.757Z,80.30
2022-12-17T03:18:44.785Z,80.30
2022-12-17T03:22:26.764Z,80.30
2022-12-17T03:26:08.773Z,80.60
2022-12-17T03:29:50.745Z,80.90
2022-12-17T03:33:33.958Z,81.50
2022-12-17T03:37:15.902Z,81.80
2022-12-17T03:40:57.135Z,82.90
2022-12-17T03:44:39.788Z,82.40
2022-12-17T03:48:27.078Z,82.20
2022-12-17T03:52:23.476Z,82.10
2022-12-17T03:56:01.762Z,82.00
2022-12-17T03:59:43.788Z,81.90
2022-12-17T04:03:25.879Z,81.90
2022-12-17T04:07:07.367Z,82.00
2022-12-17T04:10:50.642Z,82.50
2022-12-17T04:14:31.551Z,82.90
2022-12-17T04:18:13.832Z,83.10
2022-12-17T04:21:58.209Z,83.10
2022-12-17T04:25:40.840Z,83.10
2022-12-17T04:29:23.859Z,83.50
2022-12-17T04:33:05.854Z,83.50
2022-12-17T04:36:47.067Z,83.60
2022-12-17T04:40:30.832Z,83.70
2022-12-17T04:44:12.972Z,84.00
2022-12-17T04:47:55.579Z,84.10
2022-12-17T04:51:40.829Z,84.20
2022-12-17T04:55:22.368Z,84.10
2022-12-17T04:59:07.255Z,84.10
2022-12-17T05:02:50.044Z,84.20
2022-12-17T05:06:33.289Z,84.30
2022-12-17T05:10:14.872Z,84.50
2022-12-17T05:13:55.853Z,84.60
2022-12-17T05:17:37.014Z,84.70
2022-12-17T05:21:23.389Z,84.40
2022-12-17T05:25:06.637Z,84.40
2022-12-17T05:28:48.457Z,84.30
2022-12-17T05:32:32.948Z,84.30
2022-12-17T05:36:18.494Z,84.30
2022-12-17T05:40:00.086Z,84.40
2022-12-17T05:43:43.908Z,84.50
2022-12-17T05:47:25.920Z,84.40
2022-12-17T05:51:08.928Z,84.40
2022-12-17T05:54:53.117Z,84.40
2022-12-17T05:58:34.432Z,84.30
2022-12-17T06:02:17.986Z,84.10
2022-12-17T06:06:00.910Z,84.10
2022-12-17T06:09:45.967Z,83.90
2022-12-17T06:13:27.973Z,83.70
2022-12-17T06:17:11.297Z,83.60
2022-12-17T06:21:03.941Z,83.70
2022-12-17T06:24:46.399Z,84.10
2022-12-17T06:28:29.761Z,84.30
2022-12-17T06:32:11.934Z,84.60
2022-12-17T06:35:54.103Z,84.80
2022-12-17T06:39:35.018Z,84.80
2022-12-17T06:43:25.025Z,84.60
2022-12-17T06:47:07.249Z,83.70
2022-12-17T06:50:50.141Z,83.80
2022-12-17T06:54:36.973Z,84.10
2022-12-17T06:58:19.969Z,83.50
2022-12-17T07:02:01.328Z,83.80
2022-12-17T07:05:44.077Z,83.90
2022-12-17T07:09:25.239Z,83.70
2022-12-17T07:13:07.433Z,83.50
2022-12-17T07:16:48.993Z,83.40
2022-12-17T07:20:31.434Z,83.30
2022-12-17T07:24:14.023Z,83.40
2022-12-17T07:27:56.067Z,83.40
2022-12-17T07:31:39.125Z,84.00
2022-12-17T07:35:21.014Z,83.40
2022-12-17T07:39:04.072Z,82.60
2022-12-17T07:42:45.115Z,82.90
2022-12-17T07:46:26.348Z,83.50
2022-12-17T07:50:08.752Z,84.00
2022-12-17T07:53:49.719Z,84.00
2022-12-17T07:57:30.973Z,84.20
2022-12-17T08:01:13.339Z,84.30
2022-12-17T08:04:54.423Z,84.00
2022-12-17T08:08:37.080Z,83.80
2022-12-17T08:12:26.331Z,83.60
2022-12-17T08:16:08.181Z,83.70
2022-12-17T08:19:49.500Z,84.00
2022-12-17T08:23:31.129Z,84.00
2022-12-17T08:27:13.505Z,85.10
2022-12-17T08:30:54.722Z,86.20
2022-12-17T08:34:37.926Z,78.70
2022-12-17T08:38:22.782Z,69.40
2022-12-17T08:42:04.635Z,71.30
2022-12-17T08:45:47.304Z,58.10
2022-12-17T08:49:28.257Z,56.60
2022-12-17T08:53:16.747Z,51.70
2022-12-17T08:56:57.737Z,50.10
2022-12-17T09:00:39.025Z,46.30
2022-12-17T09:04:21.663Z,44.80
2022-12-17T09:08:02.783Z,45.80
2022-12-17T09:11:43.759Z,47.20
2022-12-17T09:15:25.610Z,47.50
2022-12-17T09:19:06.813Z,46.70
2022-12-17T09:22:49.149Z,46.20
2022-12-17T09:26:29.962Z,47.40
2022-12-17T09:30:10.699Z,49.70
2022-12-17T09:33:51.781Z,49.50
2022-12-17T09:37:32.672Z,49.70
2022-12-17T09:41:20.595Z,49.80
2022-12-17T09:45:09.593Z,50.30
2022-12-17T09:48:57.479Z,51.00
2022-12-17T09:52:42.943Z,51.40
2022-12-17T09:56:28.095Z,49.50
2022-12-17T10:00:09.246Z,49.40
2022-12-17T10:03:54.891Z,48.10
2022-12-17T10:07:50.416Z,47.90
2022-12-17T10:11:39.692Z,47.20
2022-12-17T10:15:21.034Z,46.60
2022-12-17T10:19:02.841Z,44.90
2022-12-17T10:22:44.408Z,43.90
2022-12-17T10:26:25.286Z,42.70
2022-12-17T10:30:07.818Z,42.10
2022-12-17T10:34:08.179Z,41.80
2022-12-17T10:37:52.601Z,42.20
2022-12-17T10:41:40.820Z,43.60
2022-12-17T10:45:41.119Z,45.30
2022-12-17T10:49:24.174Z,46.70
2022-12-17T10:53:07.108Z,47.40
2022-12-17T10:56:48.281Z,47.40
2022-12-17T11:00:50.228Z,47.90
2022-12-17T11:04:43.414Z,48.80
2022-12-17T11:08:25.632Z,48.10
2022-12-17T11:12:08.953Z,48.30
2022-12-17T11:15:56.531Z,50.70
2022-12-17T11:19:49.913Z,53.40
2022-12-17T11:23:36.732Z,55.20
2022-12-17T11:27:21.324Z,57.10
2022-12-17T11:31:11.309Z,58.80
2022-12-17T11:35:02.459Z,61.70
2022-12-17T11:38:51.950Z,63.30
2022-12-17T11:42:43.234Z,65.10
2022-12-17T11:46:35.935Z,67.30
2022-12-17T11:50:25.921Z,68.00
2022-12-17T11:54:17.499Z,68.10
2022-12-17T11:58:05.953Z,68.70
2022-12-17T12:01:56.746Z,70.60
2022-12-17T12:05:54.925Z,70.30
2022-12-17T12:09:45.629Z,70.20
2022-12-17T12:13:35.017Z,70.40
2022-12-17T12:17:29.113Z,70.40
2022-12-17T12:21:29.329Z,70.30
2022-12-17T12:25:25.642Z,70.20
2022-12-17T12:29:16.096Z,70.20
2022-12-17T12:33:10.256Z,70.30
2022-12-17T12:36:52.971Z,70.20
2022-12-17T12:40:41.501Z,70.20
2022-12-17T12:44:33.073Z,70.00
2022-12-17T12:48:19.696Z,70.20
2022-12-17T12:52:01.157Z,70.00
2022-12-17T12:55:42.309Z,70.30
2022-12-17T12:59:30.361Z,70.70
2022-12-17T13:03:11.735Z,71.00
2022-12-17T13:06:50.860Z,71.40
2022-12-17T13:10:29.357Z,71.70
2022-12-17T13:13:56.795Z,71.90
2022-12-17T13:17:32.333Z,72.80
2022-12-17T13:21:01.406Z,73.00
2022-12-17T13:24:28.299Z,73.30
2022-12-17T13:27:52.258Z,72.90
2022-12-17T13:31:19.420Z,73.40
2022-12-17T13:34:58.585Z,73.30
2022-12-17T13:38:30.902Z,73.40
2022-12-17T13:41:56.504Z,73.20
2022-12-17T13:45:23.829Z,73.10
2022-12-17T13:48:54.641Z,72.90
2022-12-17T13:52:21.787Z,73.20
2022-12-17T13:55:51.926Z,72.90
2022-12-17T13:59:22.999Z,72.70
2022-12-17T14:02:46.900Z,72.80
2022-12-17T14:06:12.739Z,72.80
2022-12-17T14:09:41.375Z,72.60
2022-12-17T14:13:08.587Z,72.50
2022-12-17T14:16:34.003Z,72.60
2022-12-17T14:20:01.165Z,72.60
2022-12-17T14:23:28.646Z,73.00
2022-12-17T14:26:53.929Z,73.50
2022-12-17T14:30:23.996Z,74.00
2022-12-17T14:34:00.993Z,74.00
2022-12-17T14:37:26.764Z,74.20
2022-12-17T14:40:50.684Z,74.40
2022-12-17T14:44:21.822Z,74.50
2022-12-17T14:47:55.002Z,74.50
2022-12-17T14:51:28.695Z,74.40
2022-12-17T14:54:57.053Z,74.20
2022-12-17T14:58:24.339Z,74.40
2022-12-17T15:01:54.184Z,74.60
2022-12-17T15:05:19.854Z,74.60
2022-12-17T15:08:47.189Z,74.50
2022-12-17T15:12:11.872Z,74.40
2022-12-17T15:15:36.356Z,74.50
2022-12-17T15:19:01.024Z,74.50
2022-12-17T15:22:25.537Z,74.70
2022-12-17T15:25:52.318Z,75.00
2022-12-17T15:29:16.411Z,74.90
2022-12-17T15:32:40.498Z,74.90
2022-12-17T15:36:04.932Z,75.00
2022-12-17T15:39:29.433Z,75.10
2022-12-17T15:43:12.785Z,75.10
2022-12-17T15:46:37.591Z,75.40
2022-12-17T15:50:01.535Z,75.50
2022-12-17T15:53:29.860Z,75.40
2022-12-17T15:56:55.589Z,75.30
2022-12-17T16:00:21.313Z,75.10
2022-12-17T16:03:45.505Z,75.10
2022-12-17T16:07:12.718Z,75.10
2022-12-17T16:10:38.658Z,75.10
2022-12-17T16:14:09.744Z,75.00
2022-12-17T16:17:34.793Z,75.30
2022-12-17T16:21:03.845Z,75.00
2022-12-17T16:24:27.444Z,75.00
2022-12-17T16:27:51.159Z,75.30
2022-12-17T16:31:16.586Z,75.20
2022-12-17T16:34:41.751Z,75.30
2022-12-17T16:38:05.516Z,75.50
2022-12-17T16:41:29.191Z,75.70
2022-12-17T16:44:52.812Z,75.70
2022-12-17T16:48:17.354Z,75.50
2022-12-17T16:51:45.944Z,75.50
2022-12-17T16:59:53.879Z,75.50
2022-12-17T17:03:17.777Z,76.00
2022-12-17T17:06:45.276Z,75.90
2022-12-17T17:10:09.526Z,76.00
2022-12-17T17:13:33.228Z,76.10
2022-12-17T17:16:56.875Z,76.20
2022-12-17T17:20:20.503Z,76.20
2022-12-17T17:23:46.198Z,76.10
2022-12-17T17:27:10.366Z,76.20
2022-12-17T17:30:34.178Z,76.30
2022-12-17T17:33:57.867Z,76.40
2022-12-17T17:37:21.525Z,76.50
2022-12-17T17:40:46.641Z,76.40
2022-12-17T17:44:13.786Z,76.50
2022-12-17T17:47:37.461Z,76.60
2022-12-17T17:51:03.263Z,76.70
2022-12-17T17:54:26.982Z,76.80
2022-12-17T17:57:51.989Z,76.80
2022-12-17T18:01:20.271Z,76.70
2022-12-17T18:04:44.039Z,76.70
2022-12-17T18:08:07.645Z,76.70
2022-12-17T18:11:32.635Z,76.60
2022-12-17T18:18:40.672Z,76.20
2022-12-17T18:22:04.385Z,76.20
2022-12-17T18:25:30.490Z,76.30
2022-12-17T18:28:58.804Z,76.30
2022-12-17T18:32:23.735Z,76.20
2022-12-17T18:35:47.344Z,76.20
2022-12-17T18:39:14.987Z,76.20
2022-12-17T18:42:55.889Z,76.30
2022-12-17T18:46:23.306Z,76.20
2022-12-17T18:49:48.573Z,76.20
2022-12-17T18:53:12.340Z,76.20
2022-12-17T18:57:00.537Z,76.20
2022-12-17T19:00:21.363Z,76.10
2022-12-17T19:03:45.098Z,76.40
2022-12-17T19:07:10.367Z,76.40
2022-12-17T19:10:37.566Z,76.30
2022-12-17T19:14:01.286Z,76.20
2022-12-17T19:17:26.319Z,75.90
2022-12-17T19:20:49.980Z,75.90
2022-12-17T19:24:16.826Z,75.50
2022-12-17T19:27:40.475Z,76.30
2022-12-17T19:31:04.661Z,76.50
2022-12-17T19:34:28.320Z,76.70
2022-12-17T19:37:53.196Z,76.70
2022-12-17T19:41:19.026Z,77.00
2022-12-17T19:44:45.704Z,76.70
2022-12-17T19:48:16.629Z,76.70
2022-12-17T19:51:46.164Z,76.70
2022-12-17T19:55:10.855Z,76.60
2022-12-17T19:58:36.321Z,76.60
2022-12-17T20:02:03.592Z,76.70
2022-12-17T20:05:27.373Z,76.70
2022-12-17T20:08:54.143Z,76.30
2022-12-17T20:12:24.288Z,76.40
2022-12-17T20:15:49.647Z,77.20
2022-12-17T20:19:25.089Z,76.30
2022-12-17T20:22:48.801Z,76.50
2022-12-17T20:26:13.281Z,76.20
2022-12-17T20:29:49.154Z,76.60
2022-12-17T20:33:19.823Z,76.70
2022-12-17T20:36:51.856Z,76.70
2022-12-17T20:40:15.706Z,76.80
2022-12-17T20:43:41.867Z,76.70
2022-12-17T20:47:09.213Z,76.60
2022-12-17T20:50:42.872Z,76.70
2022-12-17T20:54:10.458Z,76.50
2022-12-17T20:57:34.511Z,76.60
2022-12-17T21:01:07.262Z,76.90
2022-12-17T21:04:34.391Z,77.00
2022-12-17T21:08:00.128Z,76.90
2022-12-17T21:11:26.954Z,76.70
2022-12-17T21:14:55.459Z,76.40
2022-12-17T21:18:22.083Z,76.60
2022-12-17T21:21:49.212Z,76.60
2022-12-17T21:25:15.561Z,76.60
2022-12-17T21:28:41.588Z,76.40
2022-12-17T21:32:06.825Z,76.50
2022-12-17T21:35:30.746Z,76.00
2022-12-17T21:38:55.547Z,75.60
2022-12-17T21:42:44.455Z,75.90
2022-12-17T21:46:13.835Z,76.20
2022-12-17T21:49:38.142Z,76.10
2022-12-17T21:53:01.871Z,76.00
2022-12-17T21:56:26.427Z,76.30
2022-12-17T21:59:52.401Z,76.40
2022-12-17T22:03:24.212Z,75.80
2022-12-17T22:06:53.688Z,75.70
2022-12-17T22:10:45.184Z,76.10
2022-12-17T22:14:21.195Z,75.80
2022-12-17T22:17:49.589Z,75.90
2022-12-17T22:21:17.633Z,75.50
2022-12-17T22:24:50.340Z,75.60
2022-12-17T22:28:16.559Z,75.90
2022-12-17T22:32:01.112Z,76.10
2022-12-17T22:36:54.070Z,76.10
2022-12-17T22:44:28.681Z,75.70
2022-12-17T22:44:41.439Z,75.40
2022-12-17T22:47:07.671Z,75.80
2022-12-17T22:50:38.994Z,76.00
2022-12-17T22:54:15.023Z,75.50
2022-12-17T22:57:42.084Z,75.40
2022-12-17T23:01:10.049Z,75.50
2022-12-17T23:04:34.034Z,75.70
2022-12-17T23:07:59.750Z,75.50
2022-12-17T23:11:25.770Z,75.40
2022-12-17T23:14:49.549Z,75.30
2022-12-17T23:18:14.107Z,75.10
2022-12-17T23:21:38.640Z,74.60
2022-12-17T23:25:11.018Z,74.00
2022-12-17T23:28:34.869Z,74.40
2022-12-17T23:32:03.419Z,74.50
2022-12-17T23:35:27.999Z,75.00
2022-12-17T23:38:52.287Z,75.20
2022-12-17T23:42:17.433Z,75.20
2022-12-17T23:45:45.815Z,74.90
2022-12-17T23:49:10.123Z,74.90
2022-12-17T23:52:34.267Z,74.20
2022-12-17T23:56:04.996Z,74.20
2022-12-17T23:59:30.535Z,74.20
